Terminal Aerodrome Forecast
Issued by NWS Wilmington, OH

Current Version | Previous Version | Text Only | Print | Product List | Glossary Off
Versions: 1 2 3 4 5 6 7 8 9 10 11 12 13 14 15 16 17 18 19 20 21 22 23 24 25

000
FTUS41 KILN 230500
TAFILN
TAF
KILN 230536Z 2306/2406 22004KT P6SM SCT250
      TEMPO 2307/2309 5SM BR
     FM230900 24004KT P6SM SCT080 BKN200
     FM231300 26008KT P6SM VCTS BKN050CB
     FM231600 29010KT 5SM -SHRA BR VCTS OVC050CB
     FM232000 32010KT P6SM BKN060
     FM240000 01009KT P6SM BKN100=

USA.gov is the U.S. government's official web portal to all federal, state and local government web resources and services.